Time;durP1;ratioP1;P1;durP2;ratioP2;P2;SDS_P1;SDS_P2;PMS_P1;PMS_P2;Temp;Humidity;BMP_temperature;BMP_pressure;BME280_temperature;BME280_humidity;BME280_pressure;Samples;Min_cycle;Max_cycle;Signal;HPM_P1;HPM_P2
2022/10/30 00:01:53;;;;;;;9.90;9.10;;;;;;;8.89;100.00;96825.78;5023157;28;20888;-78
2022/10/30 00:04:20;;;;;;;11.50;9.40;;;;;;;8.90;100.00;96823.94;5018799;28;20452;-78
2022/10/30 00:06:47;;;;;;;10.73;8.67;;;;;;;9.21;100.00;96857.44;5022960;28;20462;-78
2022/10/30 00:09:14;;;;;;;11.00;8.93;;;;;;;8.96;100.00;96820.09;5027411;28;20439;-78
2022/10/30 00:11:41;;;;;;;13.33;10.60;;;;;;;9.08;100.00;96835.34;5027236;28;20561;-78
2022/10/30 00:14:08;;;;;;;12.90;8.83;;;;;;;9.00;100.00;96854.56;5034081;28;20459;-78
2022/10/30 00:16:34;;;;;;;11.63;8.80;;;;;;;8.93;100.00;96854.19;5024498;28;20821;-78
2022/10/30 00:19:01;;;;;;;10.63;8.40;;;;;;;8.61;100.00;96794.63;5026184;28;20449;-78
2022/10/30 00:21:28;;;;;;;16.30;8.33;;;;;;;8.69;100.00;96813.13;5042379;28;20938;-78
2022/10/30 00:23:54;;;;;;;11.90;7.93;;;;;;;8.67;100.00;96810.00;5047071;28;20891;-78
2022/10/30 00:26:22;;;;;;;8.57;7.73;;;;;;;8.96;100.00;96848.34;5029911;28;20438;-78
2022/10/30 00:28:53;;;;;;;8.50;7.53;;;;;;;9.02;100.00;96860.31;5040303;28;20459;-78
2022/10/30 00:31:21;;;;;;;8.40;7.50;;;;;;;8.99;100.00;96847.72;5039881;28;20489;-78
2022/10/30 00:33:50;;;;;;;8.23;7.20;;;;;;;8.87;100.00;96841.16;5045957;28;20468;-78
2022/10/30 00:36:18;;;;;;;10.73;7.33;;;;;;;8.86;100.00;96846.72;5046873;28;20468;-78
2022/10/30 00:38:44;;;;;;;12.10;8.77;;;;;;;8.65;100.00;96830.63;5041316;28;20516;-78
2022/10/30 00:41:16;;;;;;;8.67;7.70;;;;;;;8.83;100.00;96839.41;5040878;28;20449;-78
2022/10/30 00:43:43;;;;;;;14.73;8.80;;;;;;;8.59;100.00;96805.47;5045727;28;20421;-78
2022/10/30 00:46:31;;;;;;;10.30;6.37;;;;;;;8.73;100.00;96840.44;5029885;28;20947;-78
2022/10/30 00:49:14;;;;;;;11.30;6.80;;;;;;;8.64;100.00;96818.50;5040968;28;20442;-78
2022/10/30 00:51:46;;;;;;;6.53;5.93;;;;;;;8.50;100.00;96815.16;5028067;28;20453;-78
2022/10/30 00:54:16;;;;;;;8.37;7.40;;;;;;;8.69;100.00;96844.78;5039322;28;20441;-78
2022/10/30 00:56:45;;;;;;;10.60;7.30;;;;;;;8.39;100.00;96790.13;5044396;28;20480;-78
2022/10/30 00:59:17;;;;;;;10.87;7.90;;;;;;;8.69;100.00;96836.09;5046455;28;20528;-78
2022/10/30 01:01:46;;;;;;;9.10;7.70;;;;;;;8.63;100.00;96818.81;5042009;28;20548;-78
2022/10/30 01:04:15;;;;;;;9.43;8.30;;;;;;;8.45;100.00;96786.31;5039211;28;20518;-78
2022/10/30 01:06:47;;;;;;;17.63;7.60;;;;;;;8.76;100.00;96826.66;5016361;28;20447;-78
2022/10/30 01:09:14;;;;;;;10.37;8.03;;;;;;;8.78;100.00;96824.50;5027269;28;20530;-78
2022/10/30 01:11:41;;;;;;;9.70;8.37;;;;;;;8.66;100.00;96800.53;5032501;28;20849;-78
2022/10/30 01:14:11;;;;;;;15.60;7.43;;;;;;;8.70;100.00;96804.16;5038465;28;20432;-78
2022/10/30 01:17:03;;;;;;;8.83;7.83;;;;;;;8.76;100.00;96825.88;5023146;28;20874;-78
2022/10/30 01:19:52;;;;;;;7.80;7.07;;;;;;;8.63;100.00;96826.72;5042517;28;20451;-78
2022/10/30 01:22:24;;;;;;;12.00;7.20;;;;;;;8.52;100.00;96819.06;5039071;28;20445;-78
2022/10/30 01:25:12;;;;;;;8.50;7.00;;;;;;;8.58;100.00;96819.72;5038936;28;20506;-78
2022/10/30 01:28:15;;;;;;;6.40;5.80;;;;;;;8.68;100.00;96811.59;5029645;28;20542;-78
2022/10/30 01:30:57;;;;;;;11.10;7.50;;;;;;;8.81;100.00;96809.91;5030364;28;20455;-78
2022/10/30 01:34:04;;;;;;;7.90;6.80;;;;;;;8.91;100.00;96814.16;5038570;28;20520;-78
2022/10/30 01:36:38;;;;;;;8.20;6.40;;;;;;;8.93;100.00;96798.81;5038750;28;20455;-78
2022/10/30 01:39:13;;;;;;;10.63;7.00;;;;;;;9.03;100.00;96819.66;5024350;28;20423;-79
2022/10/30 01:41:40;;;;;;;7.60;6.40;;;;;;;8.80;100.00;96800.47;5018992;28;20924;-78
2022/10/30 01:44:17;;;;;;;7.83;7.00;;;;;;;9.03;100.00;96817.03;5044361;28;20429;-78
2022/10/30 01:46:58;;;;;;;7.10;6.40;;;;;;;9.05;100.00;96812.22;5026110;28;20448;-78
2022/10/30 01:50:03;;;;;;;9.10;6.90;;;;;;;9.08;100.00;96822.16;5038369;28;20507;-78
2022/10/30 01:52:59;;;;;;;10.90;7.20;;;;;;;9.09;100.00;96813.19;5037325;28;20969;-78
2022/10/30 01:55:40;;;;;;;11.40;7.00;;;;;;;8.98;100.00;96810.03;5043513;28;20930;-78
2022/10/30 01:58:23;;;;;;;6.73;5.70;;;;;;;8.76;100.00;96791.59;5018965;28;20899;-77
2022/10/30 02:00:56;;;;;;;9.20;6.70;;;;;;;8.56;100.00;96756.78;5044918;28;20492;-78
2022/10/30 02:03:24;;;;;;;7.93;7.23;;;;;;;8.28;100.00;96747.44;5025384;28;20442;-78
2022/10/30 02:06:12;;;;;;;6.80;6.20;;;;;;;8.46;100.00;96767.56;5021828;28;20425;-78
2022/10/30 02:08:38;;;;;;;10.63;6.77;;;;;;;8.57;100.00;96791.81;5007558;28;20478;-78
2022/10/30 02:11:05;;;;;;;7.40;6.70;;;;;;;8.67;100.00;96786.28;5001473;28;20446;-78
2022/10/30 02:13:37;;;;;;;7.70;7.00;;;;;;;8.71;100.00;96795.16;4999523;28;20848;-78
2022/10/30 02:16:04;;;;;;;7.97;7.13;;;;;;;8.69;100.00;96784.13;5025870;28;20430;-78
2022/10/30 02:18:31;;;;;;;18.80;6.70;;;;;;;8.40;100.00;96752.16;5026979;28;20495;-78
2022/10/30 02:20:59;;;;;;;6.53;5.93;;;;;;;8.39;100.00;96755.88;5006285;28;20504;-78
2022/10/30 02:23:26;;;;;;;9.73;7.07;;;;;;;8.20;100.00;96717.31;5002554;28;20450;-78
2022/10/30 02:25:53;;;;;;;6.90;6.03;;;;;;;8.18;100.00;96727.38;5005302;28;20443;-78
2022/10/30 02:28:20;;;;;;;6.67;6.07;;;;;;;8.52;100.00;96787.44;5039286;28;20433;-78
2022/10/30 02:30:46;;;;;;;8.83;6.33;;;;;;;8.57;100.00;96794.47;5022786;28;20860;-78
2022/10/30 02:33:13;;;;;;;16.60;7.83;;;;;;;8.39;100.00;96777.75;5003525;28;20458;-78
2022/10/30 02:35:40;;;;;;;8.13;6.97;;;;;;;8.39;100.00;96754.03;5041005;28;20427;-78
2022/10/30 02:38:07;;;;;;;7.77;6.70;;;;;;;8.49;100.00;96769.59;5026698;28;20433;-78
2022/10/30 02:40:33;;;;;;;10.23;6.43;;;;;;;8.59;100.00;96795.72;5039484;28;20773;-78
2022/10/30 02:43:00;;;;;;;11.17;7.03;;;;;;;8.50;100.00;96763.25;5019995;28;20521;-78
2022/10/30 02:45:28;;;;;;;8.03;5.93;;;;;;;8.49;100.00;96784.63;5009345;28;20447;-78
2022/10/30 02:47:55;;;;;;;7.63;6.73;;;;;;;8.43;100.00;96756.84;5044337;28;20445;-78
2022/10/30 02:50:22;;;;;;;11.73;6.17;;;;;;;8.38;100.00;96749.06;5024329;28;21158;-78
2022/10/30 02:52:50;;;;;;;7.83;6.47;;;;;;;8.23;100.00;96734.38;5016866;28;20477;-78
2022/10/30 02:55:17;;;;;;;7.70;6.87;;;;;;;8.58;100.00;96783.59;5031422;28;20445;-78
2022/10/30 02:57:45;;;;;;;7.70;6.93;;;;;;;8.61;100.00;96779.59;5037350;28;20473;-78
2022/10/30 03:00:12;;;;;;;7.70;6.23;;;;;;;8.36;100.00;96743.31;5039871;28;20470;-78
2022/10/30 03:02:39;;;;;;;6.60;6.00;;;;;;;8.50;100.00;96759.84;5043708;28;20453;-78
2022/10/30 03:05:06;;;;;;;7.23;6.40;;;;;;;8.48;100.00;96749.59;5030873;28;20553;-78
2022/10/30 03:07:33;;;;;;;11.10;6.63;;;;;;;8.50;100.00;96750.06;5044076;28;20944;-78
2022/10/30 03:09:59;;;;;;;12.40;6.50;;;;;;;8.71;100.00;96771.44;5042196;28;20437;-78
2022/10/30 03:12:26;;;;;;;7.73;6.47;;;;;;;8.41;100.00;96727.38;5023410;28;20503;-78
2022/10/30 03:14:52;;;;;;;6.43;5.73;;;;;;;8.77;100.00;96780.75;5027112;28;20554;-78
2022/10/30 03:17:19;;;;;;;11.37;6.53;;;;;;;8.78;100.00;96773.63;5029028;28;20473;-78
2022/10/30 03:19:47;;;;;;;7.60;6.80;;;;;;;8.72;100.00;96769.56;5042801;28;20449;-79
2022/10/30 03:22:14;;;;;;;6.93;6.23;;;;;;;8.56;100.00;96750.72;5015093;28;20454;-78
2022/10/30 03:24:41;;;;;;;10.13;6.43;;;;;;;8.39;100.00;96727.69;5042784;28;20532;-78
2022/10/30 03:27:07;;;;;;;7.43;5.67;;;;;;;8.74;100.00;96777.94;5020506;28;20532;-78
2022/10/30 03:29:34;;;;;;;8.20;6.70;;;;;;;8.52;100.00;96758.44;5037750;28;20452;-78
2022/10/30 03:32:02;;;;;;;8.27;5.43;;;;;;;8.08;100.00;96698.66;5043615;28;20477;-78
2022/10/30 03:34:34;;;;;;;10.93;7.80;;;;;;;8.09;100.00;96705.47;5027842;28;20511;-78
2022/10/30 03:37:04;;;;;;;8.00;6.30;;;;;;;8.36;100.00;96744.09;5037933;28;20444;-78
2022/10/30 03:39:31;;;;;;;7.43;6.27;;;;;;;8.54;100.00;96774.72;5037120;28;20461;-78
2022/10/30 03:41:57;;;;;;;8.67;6.40;;;;;;;8.48;100.00;96756.72;5019234;28;20463;-78
2022/10/30 03:44:24;;;;;;;8.90;6.53;;;;;;;8.40;100.00;96741.63;5025458;28;20964;-78
2022/10/30 03:46:52;;;;;;;7.10;6.40;;;;;;;7.95;100.00;96676.56;5026549;28;20434;-78
2022/10/30 03:49:27;;;;;;;10.37;6.70;;;;;;;8.50;100.00;96778.28;5028247;28;20441;-78
2022/10/30 03:51:55;;;;;;;11.10;7.30;;;;;;;8.43;100.00;96767.41;5030150;28;20552;-78
2022/10/30 03:54:24;;;;;;;9.70;7.10;;;;;;;8.42;100.00;96784.28;5027466;28;20473;-78
2022/10/30 03:56:51;;;;;;;11.40;6.50;;;;;;;8.51;100.00;96777.19;5023481;28;20968;-78
2022/10/30 03:59:18;;;;;;;8.87;8.00;;;;;;;8.20;100.00;96735.75;5036604;28;20937;-78
2022/10/30 04:02:01;;;;;;;8.90;7.23;;;;;;;8.24;100.00;96731.44;5038403;28;20454;-77
2022/10/30 04:04:28;;;;;;;12.87;8.13;;;;;;;8.22;100.00;96727.56;5043486;28;20426;-78
2022/10/30 04:06:55;;;;;;;12.23;6.73;;;;;;;8.21;100.00;96762.88;5025809;28;20435;-78
2022/10/30 04:09:22;;;;;;;7.37;6.77;;;;;;;8.34;100.00;96775.25;5031309;28;20438;-78
2022/10/30 04:11:49;;;;;;;9.27;6.83;;;;;;;8.39;100.00;96769.06;5030270;28;20981;-78
2022/10/30 04:14:15;;;;;;;7.60;6.43;;;;;;;8.17;100.00;96733.72;5036321;28;20464;-78
2022/10/30 04:16:42;;;;;;;11.73;6.80;;;;;;;8.33;100.00;96754.44;5037207;28;20450;-78
2022/10/30 04:19:09;;;;;;;8.50;6.23;;;;;;;8.29;100.00;96749.00;5043418;28;20426;-78
2022/10/30 04:21:37;;;;;;;7.70;6.67;;;;;;;8.44;100.00;96763.69;5029941;28;20454;-78
2022/10/30 04:24:03;;;;;;;8.97;7.00;;;;;;;8.28;100.00;96744.81;5040398;28;20442;-78
2022/10/30 04:26:32;;;;;;;8.60;6.37;;;;;;;8.23;100.00;96753.59;5023918;28;20452;-78
2022/10/30 04:28:59;;;;;;;15.40;7.10;;;;;;;8.05;100.00;96728.22;5029456;28;20436;-78
2022/10/30 04:31:26;;;;;;;8.03;7.23;;;;;;;8.08;100.00;96727.63;5046619;28;20547;-78
2022/10/30 04:33:53;;;;;;;16.30;6.30;;;;;;;8.08;100.00;96727.63;5041114;28;20472;-78
2022/10/30 04:36:20;;;;;;;7.20;6.50;;;;;;;8.06;100.00;96721.88;5039704;28;20479;-78
2022/10/30 04:38:47;;;;;;;6.63;5.93;;;;;;;8.27;100.00;96741.38;5036955;28;20439;-78
2022/10/30 04:41:14;;;;;;;8.60;6.40;;;;;;;8.15;100.00;96716.69;5029872;28;20466;-78
2022/10/30 04:43:51;;;;;;;10.40;7.27;;;;;;;8.21;100.00;96718.88;5028553;28;20457;-77
2022/10/30 04:46:18;;;;;;;8.70;6.10;;;;;;;8.44;100.00;96753.91;5019881;28;20445;-78
2022/10/30 04:48:44;;;;;;;9.73;6.27;;;;;;;8.11;100.00;96697.28;5023310;28;20497;-78
2022/10/30 04:51:12;;;;;;;9.83;6.40;;;;;;;8.25;100.00;96719.03;5033675;28;20461;-78
2022/10/30 04:53:39;;;;;;;6.43;5.83;;;;;;;8.19;100.00;96734.22;5042206;28;20520;-78
2022/10/30 04:56:09;;;;;;;8.60;6.37;;;;;;;8.33;100.00;96752.56;5046509;28;20439;-78
2022/10/30 04:58:36;;;;;;;17.00;14.60;;;;;;;8.13;100.00;96705.66;5027860;28;20479;-78
2022/10/30 05:01:05;;;;;;;10.63;9.57;;;;;;;8.52;100.00;96758.44;5039177;28;21318;-78
2022/10/30 05:03:33;;;;;;;11.00;8.90;;;;;;;8.05;100.00;96706.38;5020944;28;20892;-78
2022/10/30 05:06:18;;;;;;;13.97;12.47;;;;;;;8.21;100.00;96729.41;5045312;28;20426;-78
2022/10/30 05:08:46;;;;;;;12.50;9.70;;;;;;;8.28;100.00;96744.81;5044702;28;21028;-78
2022/10/30 05:11:34;;;;;;;11.80;8.27;;;;;;;8.00;100.00;96702.78;5024021;28;20497;-78
2022/10/30 05:14:01;;;;;;;8.57;7.07;;;;;;;8.39;100.00;96735.59;5046012;28;20465;-78
2022/10/30 05:16:27;;;;;;;6.90;6.20;;;;;;;8.18;100.00;96705.53;5027551;28;20432;-78
2022/10/30 05:18:56;;;;;;;9.20;6.47;;;;;;;8.02;100.00;96689.34;5039209;28;20507;-78
2022/10/30 05:21:23;;;;;;;15.17;7.00;;;;;;;8.23;100.00;96726.47;5024128;28;20465;-78
2022/10/30 05:23:49;;;;;;;10.33;7.43;;;;;;;8.10;100.00;96708.88;5045689;28;20512;-78
2022/10/30 05:26:16;;;;;;;10.50;7.37;;;;;;;8.14;100.00;96733.53;5044659;28;20811;-78
2022/10/30 05:28:43;;;;;;;14.97;6.47;;;;;;;8.13;100.00;96742.50;5022497;28;20433;-78
2022/10/30 05:31:09;;;;;;;6.10;5.57;;;;;;;7.78;100.00;96725.69;5039983;28;20966;-78
2022/10/30 05:33:55;;;;;;;9.83;6.30;;;;;;;7.63;100.00;96701.28;5028948;28;20460;-78
2022/10/30 05:36:23;;;;;;;8.00;5.93;;;;;;;7.75;100.00;96707.88;5021238;28;20549;-78
2022/10/30 05:38:50;;;;;;;7.13;6.43;;;;;;;8.02;100.00;96733.31;5027007;28;20514;-78
2022/10/30 05:41:36;;;;;;;8.87;6.40;;;;;;;7.97;100.00;96705.22;5051321;28;20916;-78
2022/10/30 05:44:03;;;;;;;9.23;6.63;;;;;;;7.86;100.00;96688.13;5023780;28;20465;-78
2022/10/30 05:46:31;;;;;;;13.80;6.40;;;;;;;7.80;100.00;96686.69;5045509;28;20446;-77
2022/10/30 05:49:07;;;;;;;8.20;6.00;;;;;;;8.02;100.00;96707.75;5032036;28;20511;-78
2022/10/30 05:51:34;;;;;;;14.47;7.13;;;;;;;7.88;100.00;96717.56;5031950;28;20473;-77
2022/10/30 05:54:07;;;;;;;10.50;6.83;;;;;;;7.81;100.00;96722.47;5044399;28;20508;-78
2022/10/30 05:56:37;;;;;;;12.13;7.70;;;;;;;7.71;100.00;96718.19;5012177;28;20458;-78
2022/10/30 05:59:03;;;;;;;10.83;9.50;;;;;;;7.71;100.00;96718.97;5010411;28;20525;-78
2022/10/30 06:01:30;;;;;;;13.03;7.17;;;;;;;7.93;100.00;96739.28;5015456;28;20518;-78
2022/10/30 06:04:00;;;;;;;10.43;8.37;;;;;;;7.86;100.00;96709.97;5015827;28;20541;-78
2022/10/30 06:06:27;;;;;;;11.57;8.50;;;;;;;7.78;100.00;96694.91;5040545;28;20454;-78
2022/10/30 06:08:54;;;;;;;10.93;8.10;;;;;;;8.03;100.00;96733.03;5033534;28;20496;-78
2022/10/30 06:11:41;;;;;;;11.57;9.30;;;;;;;8.09;100.00;96741.56;5023885;28;20469;-78
2022/10/30 06:14:09;;;;;;;11.90;8.40;;;;;;;7.88;100.00;96721.00;5028657;28;20569;-78
2022/10/30 06:16:44;;;;;;;8.07;7.27;;;;;;;8.05;100.00;96735.34;5045050;28;20441;-78
2022/10/30 06:19:21;;;;;;;14.17;7.10;;;;;;;7.53;100.00;96679.69;5042929;28;20454;-78
2022/10/30 06:21:50;;;;;;;11.33;8.50;;;;;;;7.96;100.00;96732.66;5044568;28;20500;-78
2022/10/30 06:24:36;;;;;;;9.57;7.03;;;;;;;8.07;100.00;96752.41;5043773;28;20465;-78
2022/10/30 06:27:38;;;;;;;9.20;7.57;;;;;;;7.94;100.00;96721.63;5027712;28;20930;-78
2022/10/30 06:30:06;;;;;;;8.63;7.63;;;;;;;8.04;100.00;96734.56;5005183;28;20490;-78
2022/10/30 06:32:32;;;;;;;9.20;6.90;;;;;;;8.11;100.00;96742.03;5041596;28;20486;-77
2022/10/30 06:35:00;;;;;;;11.07;9.20;;;;;;;7.98;100.00;96709.44;5032260;28;20474;-78
2022/10/30 06:37:27;;;;;;;12.93;9.70;;;;;;;7.98;100.00;96722.59;5043293;28;20457;-78
2022/10/30 06:39:55;;;;;;;12.73;9.37;;;;;;;7.99;100.00;96730.19;5038694;28;20437;-78
2022/10/30 06:42:43;;;;;;;9.67;8.60;;;;;;;8.16;100.00;96750.63;5051301;28;20450;-78
2022/10/30 06:45:23;;;;;;;10.23;8.47;;;;;;;8.32;100.00;96768.69;5029630;28;20522;-78
2022/10/30 06:47:51;;;;;;;11.57;9.60;;;;;;;8.43;100.00;96775.31;5045785;28;20811;-78
2022/10/30 06:50:19;;;;;;;10.10;8.57;;;;;;;8.22;100.00;96743.38;5041265;28;20433;-78
2022/10/30 06:52:47;;;;;;;9.73;8.60;;;;;;;8.48;100.00;96762.00;5038268;28;20517;-78
2022/10/30 06:55:14;;;;;;;12.10;8.33;;;;;;;8.45;100.00;96765.25;5041537;28;20486;-78
2022/10/30 06:57:56;;;;;;;12.80;9.20;;;;;;;8.23;100.00;96734.38;5035535;28;20957;-78
2022/10/30 07:00:36;;;;;;;25.37;16.63;;;;;;;8.26;100.00;96760.88;5038148;28;20837;-77
2022/10/30 07:03:20;;;;;;;16.23;14.10;;;;;;;8.68;100.00;96793.13;5042252;28;20464;-78
2022/10/30 07:05:47;;;;;;;8.47;7.57;;;;;;;8.54;100.00;96744.97;5045121;28;20442;-78
2022/10/30 07:08:14;;;;;;;12.80;7.80;;;;;;;8.90;100.00;96805.47;5041530;28;20433;-78
2022/10/30 07:10:41;;;;;;;9.40;7.70;;;;;;;8.84;100.00;96801.44;5017976;28;20450;-78
2022/10/30 07:13:34;;;;;;;10.20;7.80;;;;;;;8.72;100.00;96791.44;5046013;28;21067;-78
2022/10/30 07:16:23;;;;;;;11.50;7.17;;;;;;;8.38;100.00;96726.13;5021679;28;20490;-78
2022/10/30 07:18:50;;;;;;;19.37;7.13;;;;;;;8.80;100.00;96790.69;5043311;28;20430;-78
2022/10/30 07:21:17;;;;;;;12.90;6.93;;;;;;;8.76;100.00;96775.78;5025826;28;21008;-78
2022/10/30 07:23:44;;;;;;;11.10;7.20;;;;;;;8.88;100.00;96805.00;5030345;28;20863;-77
2022/10/30 07:26:20;;;;;;;10.77;8.07;;;;;;;9.00;100.00;96807.09;5037052;28;20449;-77
2022/10/30 07:28:47;;;;;;;10.60;8.47;;;;;;;9.15;100.00;96802.19;5021956;28;20528;-79
2022/10/30 07:31:14;;;;;;;8.63;7.10;;;;;;;8.97;100.00;96758.38;5039239;28;20456;-78
2022/10/30 07:34:12;;;;;;;11.10;8.63;;;;;;;9.28;100.00;96805.00;5013233;28;20447;-78
2022/10/30 07:36:54;;;;;;;14.33;7.97;;;;;;;8.94;100.00;96734.44;5023854;28;20990;-78
2022/10/30 07:39:28;;;;;;;8.77;6.57;;;;;;;9.44;100.00;96800.88;5040118;28;20454;-78
2022/10/30 07:42:12;;;;;;;12.13;7.37;;;;;;;9.21;100.00;96768.50;5043957;28;20441;-78
2022/10/30 07:45:02;;;;;;;9.63;6.77;;;;;;;9.17;100.00;96763.06;5041121;28;20445;-78
2022/10/30 07:47:40;;;;;;;9.83;8.77;;;;;;;9.61;100.00;96790.34;5024350;28;20452;-78
2022/10/30 07:50:16;;;;;;;17.70;15.80;;;;;;;9.86;100.00;96811.81;5017739;28;20461;-78
2022/10/30 07:52:43;;;;;;;15.70;12.93;;;;;;;9.50;100.00;96768.00;5034075;28;20426;-78
2022/10/30 07:55:10;;;;;;;21.40;19.13;;;;;;;9.41;100.00;96748.72;5024663;28;20569;-78
2022/10/30 07:57:42;;;;;;;18.37;16.30;;;;;;;9.24;100.00;96743.41;5046626;28;20415;-78
2022/10/30 08:00:16;;;;;;;18.37;16.27;;;;;;;9.69;100.00;96794.88;5045161;28;20471;-78
2022/10/30 08:02:55;;;;;;;17.13;15.50;;;;;;;9.69;100.00;96792.22;5029550;28;20443;-78
2022/10/30 08:05:33;;;;;;;20.47;15.37;;;;;;;9.44;100.00;96774.47;5042064;28;20433;-78
2022/10/30 08:08:09;;;;;;;13.77;11.00;;;;;;;9.43;100.00;96772.94;5043168;28;20475;-78
2022/10/30 08:10:36;;;;;;;13.23;10.83;;;;;;;9.34;100.00;96741.22;5037816;28;20441;-78
2022/10/30 08:13:03;;;;;;;9.23;8.33;;;;;;;9.67;100.00;96791.78;5043839;28;20441;-78
2022/10/30 08:15:31;;;;;;;11.37;10.13;;;;;;;9.62;100.00;96770.03;5040187;28;20459;-78
2022/10/30 08:17:58;;;;;;;11.37;9.70;;;;;;;9.48;100.00;96749.81;5043447;28;20534;-78
2022/10/30 08:20:26;;;;;;;9.73;8.73;;;;;;;9.38;100.00;96723.72;5030324;28;20549;-78
2022/10/30 08:22:56;;;;;;;12.23;9.40;;;;;;;9.64;100.00;96758.06;5044150;28;20782;-78
2022/10/30 08:25:26;;;;;;;10.10;8.80;;;;;;;9.82;100.00;96769.41;5041254;28;20413;-78
2022/10/30 08:27:54;;;;;;;11.00;8.57;;;;;;;9.99;100.00;96800.34;5041889;28;20450;-78
2022/10/30 08:30:25;;;;;;;11.90;9.03;;;;;;;10.02;100.00;96795.22;5030576;28;20527;-78
2022/10/30 08:32:58;;;;;;;11.03;9.80;;;;;;;10.00;100.00;96781.53;5046413;28;20434;-79
2022/10/30 08:35:55;;;;;;;11.13;10.03;;;;;;;10.03;100.00;96774.88;5035992;28;20477;-78
2022/10/30 08:38:23;;;;;;;13.47;10.50;;;;;;;10.22;100.00;96795.72;5036683;28;20431;-78
2022/10/30 08:41:04;;;;;;;21.93;14.83;;;;;;;10.17;100.00;96782.63;5033349;28;20461;-78
2022/10/30 08:43:35;;;;;;;18.50;12.50;;;;;;;10.25;100.00;96793.22;5040621;28;20999;-78
2022/10/30 08:46:01;;;;;;;18.13;10.90;;;;;;;10.20;100.00;96780.13;5039707;28;20439;-79
2022/10/30 08:48:28;;;;;;;9.43;8.53;;;;;;;10.24;100.00;96775.03;5045528;28;20541;-78
2022/10/30 08:51:00;;;;;;;9.63;8.27;;;;;;;10.38;100.00;96785.44;5046273;28;20958;-78
2022/10/30 08:53:32;;;;;;;9.47;6.87;;;;;;;10.19;100.00;96751.41;5042209;28;20441;-78
2022/10/30 08:56:01;;;;;;;7.73;6.80;;;;;;;10.40;100.00;96768.16;5039527;28;20488;-78
2022/10/30 08:58:42;;;;;;;12.37;6.03;;;;;;;10.68;100.00;96800.31;5041729;28;20966;-78
2022/10/30 09:01:09;;;;;;;7.13;5.90;;;;;;;10.65;100.00;96785.06;5029893;28;20494;-78
2022/10/30 09:03:54;;;;;;;9.43;6.30;;;;;;;10.63;100.00;96782.75;5046755;28;20413;-78
2022/10/30 09:06:40;;;;;;;6.90;6.20;;;;;;;10.60;100.00;96753.53;5043086;28;20410;-78
2022/10/30 09:09:26;;;;;;;12.27;6.77;;;;;;;10.79;100.00;96764.50;5020053;28;20982;-78
2022/10/30 09:11:56;;;;;;;8.07;6.57;;;;;;;10.79;100.00;96739.91;5034834;28;20832;-78
2022/10/30 09:14:23;;;;;;;6.30;5.27;;;;;;;11.38;100.00;96809.59;5028305;28;20497;-78
2022/10/30 09:16:50;;;;;;;9.77;5.63;;;;;;;11.33;100.00;96772.69;5048317;28;20856;-79
2022/10/30 09:19:19;;;;;;;9.80;6.27;;;;;;;11.38;100.00;96769.88;5036383;28;20457;-79
2022/10/30 09:21:48;;;;;;;12.10;5.73;;;;;;;11.90;100.00;96833.16;5021300;28;20963;-78
2022/10/30 09:24:15;;;;;;;9.00;6.17;;;;;;;11.68;100.00;96793.69;5043571;28;20439;-78
2022/10/30 09:26:41;;;;;;;9.07;5.83;;;;;;;11.95;100.00;96814.41;5046118;28;20475;-78
2022/10/30 09:29:16;;;;;;;8.33;5.93;;;;;;;11.87;100.00;96790.63;5042731;28;20440;-78
2022/10/30 09:31:42;;;;;;;11.40;6.60;;;;;;;12.24;100.00;96829.47;5040240;28;20438;-79
2022/10/30 09:34:13;;;;;;;9.83;7.33;;;;;;;12.56;100.00;96838.59;5025273;28;20998;-78
2022/10/30 09:37:00;;;;;;;11.60;6.63;;;;;;;12.65;100.00;96847.22;5026393;28;20821;-78
2022/10/30 09:39:29;;;;;;;10.83;6.47;;;;;;;12.59;100.00;96813.28;5022894;28;20443;-78
2022/10/30 09:42:20;;;;;;;8.47;6.47;;;;;;;12.90;100.00;96842.78;5028182;28;20493;-79
2022/10/30 09:45:16;;;;;;;6.43;5.50;;;;;;;13.17;100.00;96841.38;5030283;28;21244;-78
2022/10/30 09:48:18;;;;;;;8.43;5.40;;;;;;;13.44;100.00;96840.00;5027040;28;20443;-78
2022/10/30 09:51:40;;;;;;;14.00;5.90;;;;;;;13.41;100.00;96832.72;5012961;28;20489;-79
2022/10/30 09:54:34;;;;;;;8.23;5.93;;;;;;;13.46;100.00;96834.34;5019220;28;20451;-77
2022/10/30 09:57:04;;;;;;;7.83;5.80;;;;;;;13.81;100.00;96848.75;5041148;28;20465;-77
2022/10/30 09:59:59;;;;;;;5.20;4.70;;;;;;;13.86;100.00;96845.84;5028968;28;20496;-77
2022/10/30 10:02:36;;;;;;;11.60;6.80;;;;;;;13.97;100.00;96827.56;5045786;28;20458;-77
2022/10/30 10:05:12;;;;;;;9.90;6.63;;;;;;;14.13;100.00;96847.03;5021779;28;20435;-77
2022/10/30 10:08:07;;;;;;;8.77;6.10;;;;;;;14.30;100.00;96845.25;5029102;28;20513;-77
2022/10/30 10:11:02;;;;;;;15.73;6.13;;;;;;;13.87;100.00;96794.25;5026283;28;20458;-77
2022/10/30 10:13:44;;;;;;;13.67;7.00;;;;;;;14.19;100.00;96845.69;5034535;28;20418;-77
2022/10/30 10:16:23;;;;;;;7.00;5.90;;;;;;;14.22;100.00;96846.91;5030141;28;20500;-77
2022/10/30 10:19:06;;;;;;;9.80;5.53;;;;;;;14.32;100.00;96843.78;5048692;28;20433;-77
2022/10/30 10:21:41;;;;;;;7.20;4.97;;;;;;;14.11;100.00;96798.72;5045480;28;20445;-78
2022/10/30 10:24:43;;;;;;;7.23;5.30;;;;;;;14.49;100.00;96837.44;5010256;28;20429;-78
2022/10/30 10:27:47;;;;;;;7.53;4.63;;;;;;;14.52;100.00;96839.41;5027322;28;20477;-77
2022/10/30 10:30:19;;;;;;;13.13;6.20;;;;;;;14.43;100.00;96828.91;5021107;28;20529;-77
2022/10/30 10:33:16;;;;;;;15.90;5.93;;;;;;;14.70;100.00;96839.91;5043423;28;20882;-77
2022/10/30 10:35:58;;;;;;;13.50;6.37;;;;;;;14.78;100.00;96836.31;5030331;28;20552;-77
2022/10/30 10:38:55;;;;;;;7.80;5.87;;;;;;;14.83;100.00;96833.41;5029515;28;20422;-77
2022/10/30 10:41:37;;;;;;;11.77;6.60;;;;;;;14.97;100.00;96836.44;5039982;28;20476;-76
2022/10/30 10:44:06;;;;;;;10.50;5.83;;;;;;;15.08;100.00;96823.38;5034080;28;20519;-76
2022/10/30 10:46:59;;;;;;;13.50;5.63;;;;;;;15.19;100.00;96837.75;5033850;28;20529;-77
2022/10/30 10:49:55;;;;;;;10.47;5.57;;;;;;;15.23;100.00;96841.28;5052236;28;20446;-77
2022/10/30 10:52:59;;;;;;;9.17;4.97;;;;;;;15.19;100.00;96813.00;5044199;28;20883;-77
2022/10/30 10:55:31;;;;;;;8.23;5.67;;;;;;;15.33;100.00;96819.44;5026949;28;20453;-78
2022/10/30 10:58:20;;;;;;;9.13;6.47;;;;;;;15.36;100.00;96820.66;5037921;28;20545;-79
2022/10/30 11:00:47;;;;;;;7.43;5.50;;;;;;;15.26;100.00;96794.53;5037922;28;20454;-78
2022/10/30 11:03:20;;;;;;;9.33;4.60;;;;;;;15.46;100.00;96790.03;5024747;28;20529;-78
2022/10/30 11:06:03;;;;;;;17.30;5.97;;;;;;;15.65;100.00;96825.56;5044468;28;20457;-78
2022/10/30 11:08:32;;;;;;;12.57;6.80;;;;;;;15.71;100.00;96790.63;5044167;28;21291;-78
2022/10/30 11:11:03;;;;;;;9.27;6.30;;;;;;;16.04;100.00;96811.53;5014891;28;20454;-78
2022/10/30 11:13:38;;;;;;;11.20;6.60;;;;;;;16.30;100.00;96801.03;5044194;28;20558;-78
2022/10/30 11:16:13;;;;;;;10.63;5.20;;;;;;;16.32;100.00;96832.69;5023262;28;20540;-78
2022/10/30 11:18:41;;;;;;;11.27;5.97;;;;;;;16.27;100.00;96820.38;5033928;28;20499;-78
2022/10/30 11:21:28;;;;;;;14.97;6.13;;;;;;;16.08;100.00;96815.81;5040912;28;20541;-78
2022/10/30 11:23:54;;;;;;;7.73;6.00;;;;;;;16.16;100.00;96798.84;5044493;28;20446;-78
2022/10/30 11:26:21;;;;;;;6.07;5.43;;;;;;;16.68;100.00;96831.50;5031031;28;20462;-79
2022/10/30 11:28:54;;;;;;;7.13;5.43;;;;;;;16.47;100.00;96823.84;5018474;28;20633;-78
2022/10/30 11:31:33;;;;;;;11.63;5.37;;;;;;;16.01;100.00;96748.19;5044600;28;20495;-78
2022/10/30 11:34:17;;;;;;;12.10;7.30;;;;;;;16.40;100.00;96792.44;5043850;28;20437;-78
2022/10/30 11:36:44;;;;;;;12.60;4.53;;;;;;;16.58;100.00;96818.72;5002334;28;20562;-79
2022/10/30 11:39:18;;;;;;;5.57;4.50;;;;;;;16.51;100.00;96806.00;5015037;28;20457;-78
2022/10/30 11:41:56;;;;;;;13.47;5.97;;;;;;;16.60;100.00;96792.44;5048843;28;20528;-79
2022/10/30 11:44:26;;;;;;;14.83;4.93;;;;;;;16.98;100.00;96818.31;5048418;28;20429;-79
2022/10/30 11:46:53;;;;;;;9.80;5.13;;;;;;;16.94;100.00;96801.44;5043201;28;20512;-78
2022/10/30 11:49:34;;;;;;;11.60;6.67;;;;;;;17.00;100.00;96794.69;5041544;28;20442;-79
2022/10/30 11:52:01;;;;;;;9.30;5.97;;;;;;;16.88;100.00;96768.94;5045999;28;20446;-79
2022/10/30 11:54:28;;;;;;;11.77;6.10;;;;;;;17.76;100.00;96827.59;5022012;28;20473;-79
2022/10/30 11:56:56;;;;;;;6.30;4.67;;;;;;;18.09;100.00;96815.44;5043752;28;20438;-79